sensor_id;sensor_type;location;lat;lon;timestamp;pressure;altitude;pressure_sealevel;temperature;humidity
14273;BME280;7220;49.450;11.052;2023-06-04T00:03:51;98261.38;;;15.68;33.94
14273;BME280;7220;49.450;11.052;2023-06-04T00:07:53;98249.31;;;15.62;34.92
14273;BME280;7220;49.450;11.052;2023-06-04T00:11:53;98255.75;;;15.59;33.77
14273;BME280;7220;49.450;11.052;2023-06-04T00:15:53;98247.16;;;15.54;34.88
14273;BME280;7220;49.450;11.052;2023-06-04T00:19:54;98251.81;;;15.52;34.65
14273;BME280;7220;49.450;11.052;2023-06-04T00:23:54;98231.91;;;15.43;35.03
14273;BME280;7220;49.450;11.052;2023-06-04T00:27:55;98238.00;;;15.45;34.38
14273;BME280;7220;49.450;11.052;2023-06-04T00:31:55;98252.59;;;15.41;34.21
14273;BME280;7220;49.450;11.052;2023-06-04T00:35:55;98255.81;;;15.34;35.00
14273;BME280;7220;49.450;11.052;2023-06-04T00:39:55;98239.34;;;15.27;34.70
14273;BME280;7220;49.450;11.052;2023-06-04T00:43:56;98240.66;;;15.21;35.20
14273;BME280;7220;49.450;11.052;2023-06-04T00:47:56;98250.81;;;15.16;35.03
14273;BME280;7220;49.450;11.052;2023-06-04T00:51:56;98248.78;;;15.07;35.47
14273;BME280;7220;49.450;11.052;2023-06-04T00:55:57;98255.22;;;15.04;35.39
14273;BME280;7220;49.450;11.052;2023-06-04T00:59:57;98250.53;;;14.95;34.92
14273;BME280;7220;49.450;11.052;2023-06-04T01:04:00;98253.31;;;14.93;35.82
14273;BME280;7220;49.450;11.052;2023-06-04T01:08:01;98266.19;;;14.88;35.82
14273;BME280;7220;49.450;11.052;2023-06-04T01:12:04;98257.50;;;14.85;35.64
14273;BME280;7220;49.450;11.052;2023-06-04T01:16:05;98240.50;;;14.73;35.61
14273;BME280;7220;49.450;11.052;2023-06-04T01:24:25;98255.44;;;14.62;35.68
14273;BME280;7220;49.450;11.052;2023-06-04T01:28:26;98260.78;;;14.62;35.81
14273;BME280;7220;49.450;11.052;2023-06-04T01:32:27;98265.69;;;14.56;35.81
14273;BME280;7220;49.450;11.052;2023-06-04T01:36:27;98263.91;;;14.56;35.90
14273;BME280;7220;49.450;11.052;2023-06-04T01:40:28;98266.56;;;14.43;36.08
14273;BME280;7220;49.450;11.052;2023-06-04T01:44:28;98270.06;;;14.44;36.11
14273;BME280;7220;49.450;11.052;2023-06-04T01:48:29;98275.31;;;14.32;36.10
14273;BME280;7220;49.450;11.052;2023-06-04T01:52:29;98256.47;;;14.21;35.94
14273;BME280;7220;49.450;11.052;2023-06-04T01:56:30;98258.28;;;14.20;36.57
14273;BME280;7220;49.450;11.052;2023-06-04T02:00:30;98276.88;;;14.22;36.55
14273;BME280;7220;49.450;11.052;2023-06-04T02:04:30;98264.56;;;14.07;36.56
14273;BME280;7220;49.450;11.052;2023-06-04T02:08:31;98261.34;;;14.01;36.48
14273;BME280;7220;49.450;11.052;2023-06-04T02:12:36;98281.75;;;14.02;37.07
14273;BME280;7220;49.450;11.052;2023-06-04T02:16:37;98281.63;;;13.91;37.26
14273;BME280;7220;49.450;11.052;2023-06-04T02:20:37;98292.72;;;13.85;37.27
14273;BME280;7220;49.450;11.052;2023-06-04T02:24:38;98287.75;;;13.79;37.78
14273;BME280;7220;49.450;11.052;2023-06-04T02:28:39;98295.81;;;13.64;37.88
14273;BME280;7220;49.450;11.052;2023-06-04T02:32:39;98299.66;;;13.60;38.26
14273;BME280;7220;49.450;11.052;2023-06-04T02:36:40;98295.66;;;13.53;38.14
14273;BME280;7220;49.450;11.052;2023-06-04T02:40:42;98302.03;;;13.50;38.24
14273;BME280;7220;49.450;11.052;2023-06-04T02:44:42;98282.91;;;13.44;39.25
14273;BME280;7220;49.450;11.052;2023-06-04T02:48:43;98278.13;;;13.34;39.46
14273;BME280;7220;49.450;11.052;2023-06-04T02:52:43;98279.34;;;13.29;38.72
14273;BME280;7220;49.450;11.052;2023-06-04T02:56:44;98283.25;;;13.23;39.53
14273;BME280;7220;49.450;11.052;2023-06-04T03:00:44;98283.09;;;13.12;39.46
14273;BME280;7220;49.450;11.052;2023-06-04T03:04:45;98283.94;;;13.12;39.46
14273;BME280;7220;49.450;11.052;2023-06-04T03:08:48;98299.78;;;13.15;40.00
14273;BME280;7220;49.450;11.052;2023-06-04T03:12:50;98301.66;;;13.13;39.43
14273;BME280;7220;49.450;11.052;2023-06-04T03:16:50;98290.91;;;13.00;39.62
14273;BME280;7220;49.450;11.052;2023-06-04T03:20:51;98301.56;;;13.00;40.14
14273;BME280;7220;49.450;11.052;2023-06-04T03:24:53;98313.47;;;12.94;40.72
14273;BME280;7220;49.450;11.052;2023-06-04T03:28:53;98255.66;;;12.66;39.92
14273;BME280;7220;49.450;11.052;2023-06-04T03:32:53;98303.75;;;12.79;40.92
14273;BME280;7220;49.450;11.052;2023-06-04T03:36:54;98309.97;;;12.80;41.32
14273;BME280;7220;49.450;11.052;2023-06-04T03:40:54;98313.75;;;12.75;40.55
14273;BME280;7220;49.450;11.052;2023-06-04T03:44:55;98297.47;;;12.66;41.05
14273;BME280;7220;49.450;11.052;2023-06-04T03:48:58;98309.75;;;12.68;41.56
14273;BME280;7220;49.450;11.052;2023-06-04T03:52:58;98317.75;;;12.68;41.23
14273;BME280;7220;49.450;11.052;2023-06-04T03:56:58;98320.00;;;12.60;42.28
14273;BME280;7220;49.450;11.052;2023-06-04T04:00:59;98317.34;;;12.60;43.03
14273;BME280;7220;49.450;11.052;2023-06-04T04:04:59;98326.28;;;12.59;42.90
14273;BME280;7220;49.450;11.052;2023-06-04T04:09:00;98320.97;;;12.59;42.13
14273;BME280;7220;49.450;11.052;2023-06-04T04:13:00;98314.22;;;12.53;42.86
14273;BME280;7220;49.450;11.052;2023-06-04T04:17:00;98319.63;;;12.52;42.93
14273;BME280;7220;49.450;11.052;2023-06-04T04:21:01;98322.28;;;12.52;43.91
14273;BME280;7220;49.450;11.052;2023-06-04T04:25:02;98318.88;;;12.50;43.02
14273;BME280;7220;49.450;11.052;2023-06-04T04:29:03;98308.81;;;12.39;44.43
14273;BME280;7220;49.450;11.052;2023-06-04T04:33:04;98313.72;;;12.46;44.22
14273;BME280;7220;49.450;11.052;2023-06-04T04:37:07;98317.31;;;12.45;44.21
14273;BME280;7220;49.450;11.052;2023-06-04T04:41:08;98321.47;;;12.35;45.56
14273;BME280;7220;49.450;11.052;2023-06-04T04:45:09;98331.50;;;12.46;44.98
14273;BME280;7220;49.450;11.052;2023-06-04T04:49:10;98337.59;;;12.48;45.44
14273;BME280;7220;49.450;11.052;2023-06-04T04:53:10;98337.31;;;12.53;45.32
14273;BME280;7220;49.450;11.052;2023-06-04T04:57:10;98336.38;;;12.54;44.71
14273;BME280;7220;49.450;11.052;2023-06-04T05:01:11;98335.53;;;12.53;44.10
14273;BME280;7220;49.450;11.052;2023-06-04T05:05:11;98332.78;;;12.55;44.22
14273;BME280;7220;49.450;11.052;2023-06-04T05:09:13;98334.22;;;12.60;44.17
14273;BME280;7220;49.450;11.052;2023-06-04T05:13:15;98349.56;;;12.71;45.37
14273;BME280;7220;49.450;11.052;2023-06-04T05:17:16;98354.53;;;12.77;45.05
14273;BME280;7220;49.450;11.052;2023-06-04T05:21:21;98355.09;;;12.83;44.50
14273;BME280;7220;49.450;11.052;2023-06-04T05:25:22;98357.22;;;12.92;44.88
14273;BME280;7220;49.450;11.052;2023-06-04T05:29:23;98351.81;;;12.93;44.11
14273;BME280;7220;49.450;11.052;2023-06-04T05:33:24;98350.75;;;13.10;43.80
14273;BME280;7220;49.450;11.052;2023-06-04T05:37:25;98353.97;;;13.16;43.75
14273;BME280;7220;49.450;11.052;2023-06-04T05:41:28;98348.28;;;13.22;43.58
14273;BME280;7220;49.450;11.052;2023-06-04T05:45:29;98368.31;;;13.44;43.61
14273;BME280;7220;49.450;11.052;2023-06-04T05:49:29;98367.94;;;13.50;42.94
14273;BME280;7220;49.450;11.052;2023-06-04T05:53:30;98376.13;;;13.61;43.13
14273;BME280;7220;49.450;11.052;2023-06-04T05:57:30;98373.84;;;13.69;43.12
14273;BME280;7220;49.450;11.052;2023-06-04T06:01:30;98368.38;;;13.71;43.14
14273;BME280;7220;49.450;11.052;2023-06-04T06:05:31;98369.31;;;13.84;43.60
14273;BME280;7220;49.450;11.052;2023-06-04T06:09:31;98370.53;;;13.93;42.83
14273;BME280;7220;49.450;11.052;2023-06-04T06:13:32;98365.63;;;14.00;42.91
14273;BME280;7220;49.450;11.052;2023-06-04T06:17:32;98380.00;;;14.12;42.61
14273;BME280;7220;49.450;11.052;2023-06-04T06:21:32;98367.41;;;14.14;42.70
14273;BME280;7220;49.450;11.052;2023-06-04T06:25:33;98383.31;;;14.30;43.24
14273;BME280;7220;49.450;11.052;2023-06-04T06:29:33;98384.31;;;14.42;42.78
14273;BME280;7220;49.450;11.052;2023-06-04T06:33:33;98374.56;;;14.41;42.26
14273;BME280;7220;49.450;11.052;2023-06-04T06:37:34;98375.34;;;14.56;42.72
14273;BME280;7220;49.450;11.052;2023-06-04T06:41:34;98382.66;;;14.66;42.47
14273;BME280;7220;49.450;11.052;2023-06-04T06:45:35;98384.00;;;14.74;42.19
14273;BME280;7220;49.450;11.052;2023-06-04T06:49:35;98388.69;;;14.83;41.90
14273;BME280;7220;49.450;11.052;2023-06-04T06:53:35;98382.06;;;14.89;42.32
14273;BME280;7220;49.450;11.052;2023-06-04T06:57:36;98392.59;;;15.05;42.46
14273;BME280;7220;49.450;11.052;2023-06-04T07:01:36;98390.00;;;15.16;42.75
14273;BME280;7220;49.450;11.052;2023-06-04T07:05:36;98396.56;;;15.25;41.93
14273;BME280;7220;49.450;11.052;2023-06-04T07:09:37;98388.22;;;15.29;41.67
14273;BME280;7220;49.450;11.052;2023-06-04T07:13:38;98384.34;;;15.34;42.10
14273;BME280;7220;49.450;11.052;2023-06-04T07:17:39;98372.47;;;15.38;41.84
14273;BME280;7220;49.450;11.052;2023-06-04T07:21:39;98388.41;;;15.52;41.55
14273;BME280;7220;49.450;11.052;2023-06-04T07:25:40;98379.09;;;15.58;42.01
14273;BME280;7220;49.450;11.052;2023-06-04T07:29:43;98387.28;;;15.81;41.66
14273;BME280;7220;49.450;11.052;2023-06-04T07:33:43;98377.00;;;15.87;41.48
14273;BME280;7220;49.450;11.052;2023-06-04T07:37:44;98373.47;;;16.11;42.57
14273;BME280;7220;49.450;11.052;2023-06-04T07:41:45;98386.50;;;16.29;41.58
14273;BME280;7220;49.450;11.052;2023-06-04T07:45:45;98368.47;;;16.31;41.76
14273;BME280;7220;49.450;11.052;2023-06-04T07:49:45;98374.56;;;16.57;41.21
14273;BME280;7220;49.450;11.052;2023-06-04T07:53:46;98374.75;;;16.78;41.39
14273;BME280;7220;49.450;11.052;2023-06-04T07:57:46;98360.63;;;16.87;40.74
14273;BME280;7220;49.450;11.052;2023-06-04T08:01:46;98372.16;;;17.01;40.59
14273;BME280;7220;49.450;11.052;2023-06-04T08:05:47;98373.91;;;17.13;41.00
14273;BME280;7220;49.450;11.052;2023-06-04T08:09:47;98371.69;;;17.18;41.00
14273;BME280;7220;49.450;11.052;2023-06-04T08:13:48;98376.81;;;17.33;40.95
14273;BME280;7220;49.450;11.052;2023-06-04T08:17:48;98368.03;;;17.42;40.95
14273;BME280;7220;49.450;11.052;2023-06-04T08:21:49;98364.63;;;17.52;40.12
14273;BME280;7220;49.450;11.052;2023-06-04T08:25:50;98357.31;;;17.54;40.12
14273;BME280;7220;49.450;11.052;2023-06-04T08:29:50;98373.78;;;17.72;39.97
14273;BME280;7220;49.450;11.052;2023-06-04T08:33:52;98372.69;;;17.86;39.25
14273;BME280;7220;49.450;11.052;2023-06-04T08:37:52;98366.31;;;17.98;38.93
14273;BME280;7220;49.450;11.052;2023-06-04T08:41:56;98366.03;;;18.12;38.84
14273;BME280;7220;49.450;11.052;2023-06-04T08:45:59;98364.06;;;18.26;38.49
14273;BME280;7220;49.450;11.052;2023-06-04T08:50:02;98371.84;;;18.40;38.96
14273;BME280;7220;49.450;11.052;2023-06-04T08:54:06;98356.13;;;18.57;38.30
14273;BME280;7220;49.450;11.052;2023-06-04T08:58:09;98363.53;;;18.65;37.92
14273;BME280;7220;49.450;11.052;2023-06-04T09:02:11;98353.69;;;18.75;37.63
14273;BME280;7220;49.450;11.052;2023-06-04T09:06:11;98357.44;;;18.84;37.12
14273;BME280;7220;49.450;11.052;2023-06-04T09:10:16;98355.31;;;18.99;37.22
14273;BME280;7220;49.450;11.052;2023-06-04T09:14:18;98362.94;;;19.15;37.24
14273;BME280;7220;49.450;11.052;2023-06-04T09:18:18;98368.41;;;19.34;36.74
14273;BME280;7220;49.450;11.052;2023-06-04T09:22:18;98370.63;;;19.50;35.57
14273;BME280;7220;49.450;11.052;2023-06-04T09:26:19;98370.91;;;19.57;35.20
14273;BME280;7220;49.450;11.052;2023-06-04T09:30:22;98372.53;;;19.69;35.63
14273;BME280;7220;49.450;11.052;2023-06-04T09:34:29;98359.91;;;19.80;34.54
14273;BME280;7220;49.450;11.052;2023-06-04T09:38:36;98366.50;;;19.87;34.88
14273;BME280;7220;49.450;11.052;2023-06-04T09:42:48;98356.91;;;19.94;33.83
14273;BME280;7220;49.450;11.052;2023-06-04T09:46:56;98361.44;;;20.04;34.63
14273;BME280;7220;49.450;11.052;2023-06-04T09:51:06;98358.94;;;20.22;35.40
14273;BME280;7220;49.450;11.052;2023-06-04T09:55:17;98345.59;;;20.40;33.41
14273;BME280;7220;49.450;11.052;2023-06-04T09:59:22;98353.81;;;20.48;33.55
14273;BME280;7220;49.450;11.052;2023-06-04T10:03:30;98343.31;;;20.55;33.32
14273;BME280;7220;49.450;11.052;2023-06-04T10:07:30;98347.84;;;20.64;32.56
14273;BME280;7220;49.450;11.052;2023-06-04T10:11:37;98342.00;;;20.69;32.80
14273;BME280;7220;49.450;11.052;2023-06-04T10:15:40;98329.81;;;20.84;32.48
14273;BME280;7220;49.450;11.052;2023-06-04T10:19:43;98343.69;;;21.09;30.91
14273;BME280;7220;49.450;11.052;2023-06-04T10:23:44;98345.53;;;21.18;30.94
14273;BME280;7220;49.450;11.052;2023-06-04T10:27:45;98317.91;;;21.24;30.57
14273;BME280;7220;49.450;11.052;2023-06-04T10:31:46;98330.97;;;21.39;30.91
14273;BME280;7220;49.450;11.052;2023-06-04T10:35:47;98335.13;;;21.71;30.58
14273;BME280;7220;49.450;11.052;2023-06-04T10:39:57;98321.00;;;21.77;29.91
14273;BME280;7220;49.450;11.052;2023-06-04T10:44:01;98324.19;;;21.90;29.72
14273;BME280;7220;49.450;11.052;2023-06-04T10:48:03;98336.16;;;21.88;29.49
14273;BME280;7220;49.450;11.052;2023-06-04T10:56:10;98339.97;;;22.13;29.85
14273;BME280;7220;49.450;11.052;2023-06-04T11:00:11;98319.41;;;22.20;29.27
14273;BME280;7220;49.450;11.052;2023-06-04T11:04:22;98330.41;;;22.37;29.38
14273;BME280;7220;49.450;11.052;2023-06-04T11:08:29;98326.97;;;22.45;29.06
14273;BME280;7220;49.450;11.052;2023-06-04T11:12:43;98310.25;;;24.82;25.86
14273;BME280;7220;49.450;11.052;2023-06-04T11:16:44;98309.94;;;27.29;23.67
14273;BME280;7220;49.450;11.052;2023-06-04T11:20:45;98308.59;;;28.79;22.35
14273;BME280;7220;49.450;11.052;2023-06-04T11:24:46;98301.69;;;29.89;20.64
14273;BME280;7220;49.450;11.052;2023-06-04T11:28:49;98304.44;;;30.44;19.63
14273;BME280;7220;49.450;11.052;2023-06-04T11:32:50;98296.25;;;30.78;19.75
14273;BME280;7220;49.450;11.052;2023-06-04T11:36:51;98290.34;;;31.08;18.99
14273;BME280;7220;49.450;11.052;2023-06-04T11:40:59;98293.72;;;30.76;19.60
14273;BME280;7220;49.450;11.052;2023-06-04T11:45:01;98302.13;;;30.48;20.40
14273;BME280;7220;49.450;11.052;2023-06-04T11:49:02;98284.81;;;30.41;22.01
14273;BME280;7220;49.450;11.052;2023-06-04T11:53:02;98290.50;;;30.46;21.99
14273;BME280;7220;49.450;11.052;2023-06-04T11:57:03;98291.81;;;30.63;22.39
14273;BME280;7220;49.450;11.052;2023-06-04T12:01:05;98283.41;;;30.58;21.52
14273;BME280;7220;49.450;11.052;2023-06-04T12:05:16;98282.75;;;30.56;20.92
14273;BME280;7220;49.450;11.052;2023-06-04T12:09:21;98274.53;;;30.56;21.14
14273;BME280;7220;49.450;11.052;2023-06-04T12:13:22;98280.84;;;30.63;21.42
14273;BME280;7220;49.450;11.052;2023-06-04T12:17:22;98276.22;;;30.77;21.18
14273;BME280;7220;49.450;11.052;2023-06-04T12:21:24;98266.50;;;30.88;20.92
14273;BME280;7220;49.450;11.052;2023-06-04T12:25:29;98266.94;;;30.98;20.26
14273;BME280;7220;49.450;11.052;2023-06-04T12:29:30;98258.06;;;31.17;20.34
14273;BME280;7220;49.450;11.052;2023-06-04T12:33:30;98265.47;;;31.16;20.22
14273;BME280;7220;49.450;11.052;2023-06-04T12:37:30;98266.66;;;31.34;19.94
14273;BME280;7220;49.450;11.052;2023-06-04T12:41:31;98248.25;;;31.47;19.99
14273;BME280;7220;49.450;11.052;2023-06-04T12:45:33;98244.47;;;31.42;19.06
14273;BME280;7220;49.450;11.052;2023-06-04T12:49:34;98249.13;;;31.48;19.33
14273;BME280;7220;49.450;11.052;2023-06-04T12:53:34;98253.72;;;31.54;19.50
14273;BME280;7220;49.450;11.052;2023-06-04T12:57:34;98253.28;;;31.71;19.65
14273;BME280;7220;49.450;11.052;2023-06-04T13:01:35;98251.50;;;31.83;19.49
14273;BME280;7220;49.450;11.052;2023-06-04T13:05:37;98254.47;;;31.88;18.79
14273;BME280;7220;49.450;11.052;2023-06-04T13:09:37;98223.59;;;31.86;18.40
14273;BME280;7220;49.450;11.052;2023-06-04T13:13:38;98250.50;;;32.09;18.10
14273;BME280;7220;49.450;11.052;2023-06-04T13:17:38;98242.00;;;32.24;17.70
14273;BME280;7220;49.450;11.052;2023-06-04T13:21:38;98238.47;;;32.43;18.19
14273;BME280;7220;49.450;11.052;2023-06-04T13:25:39;98234.28;;;32.65;18.57
14273;BME280;7220;49.450;11.052;2023-06-04T13:29:39;98221.72;;;32.76;17.88
14273;BME280;7220;49.450;11.052;2023-06-04T13:33:40;98229.63;;;32.91;17.50
14273;BME280;7220;49.450;11.052;2023-06-04T13:37:41;98230.38;;;33.24;17.52
14273;BME280;7220;49.450;11.052;2023-06-04T13:41:42;98227.81;;;33.22;17.06
14273;BME280;7220;49.450;11.052;2023-06-04T13:45:42;98209.50;;;33.53;17.04
14273;BME280;7220;49.450;11.052;2023-06-04T13:49:44;98203.63;;;33.99;17.11
14273;BME280;7220;49.450;11.052;2023-06-04T13:53:44;98201.38;;;34.19;17.39
14273;BME280;7220;49.450;11.052;2023-06-04T13:57:45;98196.25;;;33.62;18.20
14273;BME280;7220;49.450;11.052;2023-06-04T14:01:45;98220.53;;;32.65;18.84
14273;BME280;7220;49.450;11.052;2023-06-04T14:05:45;98202.72;;;31.78;19.32
14273;BME280;7220;49.450;11.052;2023-06-04T14:09:46;98209.06;;;31.20;19.82
14273;BME280;7220;49.450;11.052;2023-06-04T14:13:47;98209.34;;;30.72;18.93
14273;BME280;7220;49.450;11.052;2023-06-04T14:17:47;98211.19;;;30.37;19.77
14273;BME280;7220;49.450;11.052;2023-06-04T14:21:47;98197.25;;;30.05;20.80
14273;BME280;7220;49.450;11.052;2023-06-04T14:25:48;98206.47;;;29.91;20.27
14273;BME280;7220;49.450;11.052;2023-06-04T14:29:48;98209.84;;;29.80;20.84
14273;BME280;7220;49.450;11.052;2023-06-04T14:33:49;98205.78;;;29.62;20.96
14273;BME280;7220;49.450;11.052;2023-06-04T14:37:49;98206.59;;;29.63;21.00
14273;BME280;7220;49.450;11.052;2023-06-04T14:41:49;98208.75;;;29.81;20.35
14273;BME280;7220;49.450;11.052;2023-06-04T14:45:50;98190.53;;;29.46;20.27
14273;BME280;7220;49.450;11.052;2023-06-04T14:49:51;98208.31;;;29.28;20.23
14273;BME280;7220;49.450;11.052;2023-06-04T14:53:51;98194.72;;;29.00;21.51
14273;BME280;7220;49.450;11.052;2023-06-04T14:57:51;98197.13;;;28.82;21.51
14273;BME280;7220;49.450;11.052;2023-06-04T15:01:52;98189.63;;;28.69;21.44
14273;BME280;7220;49.450;11.052;2023-06-04T15:05:53;98187.66;;;28.56;21.89
14273;BME280;7220;49.450;11.052;2023-06-04T15:09:54;98184.03;;;28.48;21.43
14273;BME280;7220;49.450;11.052;2023-06-04T15:13:54;98178.53;;;28.20;22.40
14273;BME280;7220;49.450;11.052;2023-06-04T15:17:54;98170.09;;;28.15;21.72
14273;BME280;7220;49.450;11.052;2023-06-04T15:21:55;98181.19;;;28.35;22.07
14273;BME280;7220;49.450;11.052;2023-06-04T15:25:55;98188.72;;;28.33;21.68
14273;BME280;7220;49.450;11.052;2023-06-04T15:29:55;98200.84;;;28.24;21.35
14273;BME280;7220;49.450;11.052;2023-06-04T15:33:56;98189.47;;;28.20;21.44
14273;BME280;7220;49.450;11.052;2023-06-04T15:37:56;98180.00;;;28.01;21.73
14273;BME280;7220;49.450;11.052;2023-06-04T15:41:56;98179.09;;;27.94;21.71
14273;BME280;7220;49.450;11.052;2023-06-04T15:45:57;98182.34;;;27.82;22.65
14273;BME280;7220;49.450;11.052;2023-06-04T15:49:57;98180.91;;;27.86;21.87
14273;BME280;7220;49.450;11.052;2023-06-04T15:53:58;98180.63;;;27.81;22.71
14273;BME280;7220;49.450;11.052;2023-06-04T15:57:58;98173.09;;;27.83;22.67
14273;BME280;7220;49.450;11.052;2023-06-04T16:01:59;98169.09;;;27.79;22.36
14273;BME280;7220;49.450;11.052;2023-06-04T16:06:00;98164.53;;;27.86;22.49
14273;BME280;7220;49.450;11.052;2023-06-04T16:10:00;98171.69;;;27.88;23.23
14273;BME280;7220;49.450;11.052;2023-06-04T16:14:02;98147.50;;;27.84;22.14
14273;BME280;7220;49.450;11.052;2023-06-04T16:18:02;98159.84;;;28.02;22.18
14273;BME280;7220;49.450;11.052;2023-06-04T16:22:03;98151.78;;;27.94;22.47
14273;BME280;7220;49.450;11.052;2023-06-04T16:26:03;98131.69;;;27.80;22.94
14273;BME280;7220;49.450;11.052;2023-06-04T16:30:04;98156.34;;;27.86;22.17
14273;BME280;7220;49.450;11.052;2023-06-04T16:34:05;98149.06;;;28.15;22.78
14273;BME280;7220;49.450;11.052;2023-06-04T16:38:05;98153.56;;;28.52;22.41
14273;BME280;7220;49.450;11.052;2023-06-04T16:42:06;98147.84;;;28.46;22.04
14273;BME280;7220;49.450;11.052;2023-06-04T16:46:07;98142.97;;;28.42;23.01
14273;BME280;7220;49.450;11.052;2023-06-04T16:50:09;98131.41;;;28.40;23.29
14273;BME280;7220;49.450;11.052;2023-06-04T16:54:09;98143.25;;;28.25;23.02
14273;BME280;7220;49.450;11.052;2023-06-04T16:58:10;98131.28;;;28.55;22.43
14273;BME280;7220;49.450;11.052;2023-06-04T17:02:11;98138.44;;;28.84;22.39
14273;BME280;7220;49.450;11.052;2023-06-04T17:06:11;98151.97;;;28.64;22.54
14273;BME280;7220;49.450;11.052;2023-06-04T17:10:12;98147.59;;;28.41;23.04
14273;BME280;7220;49.450;11.052;2023-06-04T17:14:12;98142.13;;;28.41;22.37
14273;BME280;7220;49.450;11.052;2023-06-04T17:18:12;98138.06;;;28.87;22.54
14273;BME280;7220;49.450;11.052;2023-06-04T17:22:13;98150.16;;;29.13;22.23
14273;BME280;7220;49.450;11.052;2023-06-04T17:26:14;98148.66;;;29.52;21.77
14273;BME280;7220;49.450;11.052;2023-06-04T17:30:15;98133.41;;;29.92;20.91
14273;BME280;7220;49.450;11.052;2023-06-04T17:34:15;98150.47;;;30.14;20.95
14273;BME280;7220;49.450;11.052;2023-06-04T17:38:15;98152.63;;;30.52;20.65
14273;BME280;7220;49.450;11.052;2023-06-04T17:42:16;98159.75;;;30.33;20.16
14273;BME280;7220;49.450;11.052;2023-06-04T17:46:16;98161.16;;;29.82;20.47
14273;BME280;7220;49.450;11.052;2023-06-04T17:50:16;98157.91;;;29.09;21.64
14273;BME280;7220;49.450;11.052;2023-06-04T17:54:17;98159.81;;;28.45;21.92
14273;BME280;7220;49.450;11.052;2023-06-04T17:58:17;98150.09;;;27.93;22.15
14273;BME280;7220;49.450;11.052;2023-06-04T18:02:18;98157.88;;;27.52;22.51
14273;BME280;7220;49.450;11.052;2023-06-04T18:06:18;98157.50;;;27.26;23.28
14273;BME280;7220;49.450;11.052;2023-06-04T18:10:19;98170.63;;;27.00;23.16
14273;BME280;7220;49.450;11.052;2023-06-04T18:14:20;98173.78;;;26.74;23.40
14273;BME280;7220;49.450;11.052;2023-06-04T18:18:21;98171.69;;;26.46;23.11
14273;BME280;7220;49.450;11.052;2023-06-04T18:22:21;98181.63;;;26.39;23.04
14273;BME280;7220;49.450;11.052;2023-06-04T18:26:21;98167.22;;;26.07;23.23
14273;BME280;7220;49.450;11.052;2023-06-04T18:30:22;98187.91;;;25.93;23.32
14273;BME280;7220;49.450;11.052;2023-06-04T18:34:23;98190.09;;;25.74;23.60
14273;BME280;7220;49.450;11.052;2023-06-04T18:38:23;98194.28;;;25.54;24.04
14273;BME280;7220;49.450;11.052;2023-06-04T18:42:23;98187.94;;;25.30;24.33
14273;BME280;7220;49.450;11.052;2023-06-04T18:46:24;98195.25;;;25.29;24.25
14273;BME280;7220;49.450;11.052;2023-06-04T18:50:24;98198.91;;;25.05;24.79
14273;BME280;7220;49.450;11.052;2023-06-04T18:54:24;98191.16;;;24.85;24.95
14273;BME280;7220;49.450;11.052;2023-06-04T18:58:25;98184.22;;;24.75;24.68
14273;BME280;7220;49.450;11.052;2023-06-04T19:02:25;98185.06;;;24.50;25.22
14273;BME280;7220;49.450;11.052;2023-06-04T19:06:25;98193.75;;;24.37;25.36
14273;BME280;7220;49.450;11.052;2023-06-04T19:10:26;98186.63;;;24.20;25.13
14273;BME280;7220;49.450;11.052;2023-06-04T19:14:27;98198.53;;;24.10;25.22
14273;BME280;7220;49.450;11.052;2023-06-04T19:18:27;98187.25;;;23.89;25.49
14273;BME280;7220;49.450;11.052;2023-06-04T19:22:27;98204.91;;;23.76;25.83
14273;BME280;7220;49.450;11.052;2023-06-04T19:26:28;98188.56;;;23.52;26.15
14273;BME280;7220;49.450;11.052;2023-06-04T19:30:28;98206.84;;;23.50;26.18
14273;BME280;7220;49.450;11.052;2023-06-04T19:34:28;98207.63;;;23.25;26.37
14273;BME280;7220;49.450;11.052;2023-06-04T19:38:28;98228.78;;;23.22;26.88
14273;BME280;7220;49.450;11.052;2023-06-04T19:42:29;98212.25;;;23.07;26.91
14273;BME280;7220;49.450;11.052;2023-06-04T19:46:29;98229.00;;;23.02;26.78
14273;BME280;7220;49.450;11.052;2023-06-04T19:50:29;98223.34;;;22.87;26.92
14273;BME280;7220;49.450;11.052;2023-06-04T19:54:30;98241.38;;;22.78;26.85
14273;BME280;7220;49.450;11.052;2023-06-04T19:58:30;98231.63;;;22.59;27.33
14273;BME280;7220;49.450;11.052;2023-06-04T20:02:30;98250.03;;;22.56;27.66
14273;BME280;7220;49.450;11.052;2023-06-04T20:55:38;98279.94;;;21.16;34.06
14273;BME280;7220;49.450;11.052;2023-06-04T20:59:38;98285.56;;;21.05;34.25
14273;BME280;7220;49.450;11.052;2023-06-04T21:03:38;98280.31;;;20.93;34.10
14273;BME280;7220;49.450;11.052;2023-06-04T21:07:39;98280.50;;;20.82;33.98
14273;BME280;7220;49.450;11.052;2023-06-04T21:11:39;98284.47;;;20.68;34.10
14273;BME280;7220;49.450;11.052;2023-06-04T21:15:39;98294.59;;;20.56;34.54
14273;BME280;7220;49.450;11.052;2023-06-04T21:19:40;98299.84;;;20.48;34.39
14273;BME280;7220;49.450;11.052;2023-06-04T21:23:40;98291.88;;;20.37;34.64
14273;BME280;7220;49.450;11.052;2023-06-04T21:27:40;98310.63;;;20.28;34.39
14273;BME280;7220;49.450;11.052;2023-06-04T21:31:41;98308.34;;;20.14;34.78
14273;BME280;7220;49.450;11.052;2023-06-04T21:35:41;98308.50;;;20.02;34.96
14273;BME280;7220;49.450;11.052;2023-06-04T21:39:41;98300.38;;;19.93;35.21
14273;BME280;7220;49.450;11.052;2023-06-04T21:43:42;98303.47;;;19.88;35.45
14273;BME280;7220;49.450;11.052;2023-06-04T21:47:42;98313.38;;;19.78;35.13
14273;BME280;7220;49.450;11.052;2023-06-04T21:51:42;98315.47;;;19.64;35.13
14273;BME280;7220;49.450;11.052;2023-06-04T21:55:43;98305.63;;;19.53;35.66
14273;BME280;7220;49.450;11.052;2023-06-04T21:59:43;98308.88;;;19.47;35.98
14273;BME280;7220;49.450;11.052;2023-06-04T22:03:43;98307.16;;;19.36;35.90
14273;BME280;7220;49.450;11.052;2023-06-04T22:07:43;98305.84;;;19.31;35.77
14273;BME280;7220;49.450;11.052;2023-06-04T22:11:44;98301.84;;;19.25;36.30
14273;BME280;7220;49.450;11.052;2023-06-04T22:15:44;98309.50;;;19.20;35.97